OCN498 EDDF-KRSW
Flight info
| Callsign | OCN498 |
|---|---|
| Flight time | N/A |
| Altitude | 38000 |
| Route | ULKIG4L/18 ULKIG Y180 DIK UN857 TOLVU DCT RAPOR/N0469F370 DCT GIMER DCT ESTOC UT300 ELCOB/N0468F380 UT300 SENLO UN502 JSY DCT LIZAD DCT GAPLI/M081F380 DCT DINIM/M081F390 DCT 5130N02000W 5130N03000W 51N040W 4830N05000W DCT MUSAK/M081F400 N278C GAYBL DCT DRYED M201 VIRST Y494 WHOOS/N0463F400 Y494 WEAKK Y493 BAHAA AR15 HIBAC SHFTY6 |
| Aircraft | A333/H-SDE2E3FGHIJ3J4J5LM1OP2RWXYZ/LB2D1 |
Departure
| Time | 2026-05-06 16:13 |
|---|---|
| Airport | Frankfurt Main Airport (EDDF) |
Arrival
| Time | N/A |
|---|---|
| Airport | Southwest Florida International Airport (KRSW) |
| Time | Latitude | Longitude | Altitude | Speed | Heading |
|---|---|---|---|---|---|
| 2026-05-06 15:28 | 50.04941 | 8.57784 | 361 ft | 0 kts | 20° |
| 2026-05-06 15:58 | 50.04927 | 8.57776 | 368 ft | 4 kts | 20° |
| 2026-05-06 15:59 | 50.04902 | 8.57759 | 367 ft | 4 kts | 37° |
| 2026-05-06 15:59 | 50.04886 | 8.57730 | 364 ft | 4 kts | 77° |
| 2026-05-06 15:59 | 50.04887 | 8.57692 | 362 ft | 3 kts | 112° |
| 2026-05-06 15:59 | 50.04890 | 8.57682 | 365 ft | 0 kts | 113° |
| 2026-05-06 16:02 | 50.04887 | 8.57695 | 369 ft | 2 kts | 113° |
| 2026-05-06 16:02 | 50.04879 | 8.57720 | 368 ft | 3 kts | 113° |
| 2026-05-06 16:02 | 50.04871 | 8.57752 | 367 ft | 3 kts | 113° |
| 2026-05-06 16:03 | 50.04857 | 8.57803 | 367 ft | 8 kts | 113° |
| 2026-05-06 16:03 | 50.04823 | 8.57877 | 370 ft | 9 kts | 140° |
| 2026-05-06 16:03 | 50.04769 | 8.57918 | 367 ft | 9 kts | 168° |
| 2026-05-06 16:03 | 50.04713 | 8.57892 | 369 ft | 8 kts | 221° |
| 2026-05-06 16:04 | 50.04688 | 8.57817 | 368 ft | 8 kts | 248° |
| 2026-05-06 16:04 | 50.04668 | 8.57734 | 370 ft | 8 kts | 249° |
| 2026-05-06 16:04 | 50.04644 | 8.57631 | 366 ft | 11 kts | 249° |
| 2026-05-06 16:04 | 50.04618 | 8.57523 | 365 ft | 11 kts | 249° |
| 2026-05-06 16:05 | 50.04591 | 8.57410 | 365 ft | 11 kts | 250° |
| 2026-05-06 16:05 | 50.04564 | 8.57294 | 365 ft | 11 kts | 250° |
| 2026-05-06 16:05 | 50.04532 | 8.57161 | 367 ft | 14 kts | 250° |
| 2026-05-06 16:05 | 50.04498 | 8.57014 | 364 ft | 14 kts | 249° |
| 2026-05-06 16:06 | 50.04465 | 8.56881 | 368 ft | 12 kts | 249° |
| 2026-05-06 16:06 | 50.04434 | 8.56753 | 369 ft | 13 kts | 249° |
| 2026-05-06 16:06 | 50.04397 | 8.56598 | 367 ft | 18 kts | 250° |
| 2026-05-06 16:06 | 50.04353 | 8.56412 | 365 ft | 19 kts | 250° |
| 2026-05-06 16:07 | 50.04308 | 8.56225 | 365 ft | 19 kts | 250° |
| 2026-05-06 16:07 | 50.04263 | 8.56038 | 363 ft | 18 kts | 250° |
| 2026-05-06 16:07 | 50.04219 | 8.55852 | 363 ft | 18 kts | 250° |
| 2026-05-06 16:07 | 50.04174 | 8.55666 | 365 ft | 18 kts | 250° |
| 2026-05-06 16:08 | 50.04129 | 8.55478 | 358 ft | 18 kts | 249° |
| 2026-05-06 16:08 | 50.04086 | 8.55297 | 363 ft | 17 kts | 250° |
| 2026-05-06 16:08 | 50.04046 | 8.55129 | 363 ft | 16 kts | 250° |
| 2026-05-06 16:08 | 50.04003 | 8.54949 | 363 ft | 19 kts | 250° |
| 2026-05-06 16:09 | 50.03956 | 8.54752 | 354 ft | 20 kts | 250° |
| 2026-05-06 16:09 | 50.03908 | 8.54546 | 359 ft | 21 kts | 250° |
| 2026-05-06 16:09 | 50.03848 | 8.54341 | 356 ft | 21 kts | 236° |
| 2026-05-06 16:09 | 50.03780 | 8.54141 | 356 ft | 21 kts | 250° |
| 2026-05-06 16:10 | 50.03731 | 8.53932 | 355 ft | 21 kts | 250° |
| 2026-05-06 16:10 | 50.03682 | 8.53722 | 354 ft | 21 kts | 250° |
| 2026-05-06 16:10 | 50.03628 | 8.53516 | 352 ft | 21 kts | 248° |
| 2026-05-06 16:10 | 50.03578 | 8.53308 | 354 ft | 20 kts | 250° |
| 2026-05-06 16:11 | 50.03529 | 8.53101 | 351 ft | 20 kts | 250° |
| 2026-05-06 16:11 | 50.03480 | 8.52897 | 338 ft | 20 kts | 249° |
| 2026-05-06 16:11 | 50.03452 | 8.52796 | 337 ft | 1 kts | 246° |
| 2026-05-06 16:11 | 50.03447 | 8.52779 | 335 ft | 7 kts | 246° |
| 2026-05-06 16:12 | 50.03423 | 8.52695 | 334 ft | 9 kts | 246° |
| 2026-05-06 16:12 | 50.03394 | 8.52610 | 334 ft | 8 kts | 229° |
| 2026-05-06 16:12 | 50.03357 | 8.52594 | 335 ft | 6 kts | 181° |
| 2026-05-06 16:12 | 50.03173 | 8.52594 | 337 ft | 55 kts | 179° |
| 2026-05-06 16:13 | 50.02585 | 8.52602 | 336 ft | 112 kts | 180° |
| 2026-05-06 16:13 | 50.01624 | 8.52616 | 335 ft | 163 kts | 179° |
| 2026-05-06 16:13 | 50.00390 | 8.52637 | 655 ft | 188 kts | 184° |
| 2026-05-06 16:13 | 49.99037 | 8.52593 | 1234 ft | 199 kts | 184° |
| 2026-05-06 16:14 | 49.97619 | 8.52546 | 1773 ft | 208 kts | 182° |
| 2026-05-06 16:14 | 49.96118 | 8.52550 | 2157 ft | 225 kts | 183° |
| 2026-05-06 16:14 | 49.94510 | 8.52596 | 2422 ft | 244 kts | 182° |
| 2026-05-06 16:14 | 49.92717 | 8.52689 | 2525 ft | 267 kts | 179° |
| 2026-05-06 16:15 | 49.90834 | 8.52929 | 2960 ft | 277 kts | 177° |
| 2026-05-06 16:15 | 49.88961 | 8.53188 | 4028 ft | 264 kts | 178° |
| 2026-05-06 16:15 | 49.87180 | 8.53160 | 5098 ft | 249 kts | 192° |
| 2026-05-06 16:15 | 49.85495 | 8.52467 | 5752 ft | 254 kts | 200° |
| 2026-05-06 16:16 | 49.83801 | 8.51535 | 6354 ft | 261 kts | 202° |
| 2026-05-06 16:16 | 49.82169 | 8.50300 | 7056 ft | 261 kts | 215° |
| 2026-05-06 16:16 | 49.80843 | 8.48398 | 7736 ft | 264 kts | 234° |
| 2026-05-06 16:16 | 49.80111 | 8.45805 | 8531 ft | 265 kts | 260° |
| 2026-05-06 16:17 | 49.80102 | 8.42901 | 9324 ft | 276 kts | 275° |
| 2026-05-06 16:17 | 49.80362 | 8.39967 | 10069 ft | 280 kts | 277° |
| 2026-05-06 16:17 | 49.80674 | 8.36980 | 10766 ft | 282 kts | 277° |
| 2026-05-06 16:17 | 49.80989 | 8.33964 | 11472 ft | 285 kts | 277° |
| 2026-05-06 16:18 | 49.81301 | 8.30901 | 11971 ft | 295 kts | 277° |
| 2026-05-06 16:18 | 49.81624 | 8.27679 | 12226 ft | 311 kts | 277° |
| 2026-05-06 16:18 | 49.81960 | 8.24281 | 12515 ft | 327 kts | 277° |
| 2026-05-06 16:18 | 49.82309 | 8.20715 | 12816 ft | 343 kts | 277° |
| 2026-05-06 16:19 | 49.82672 | 8.16988 | 13215 ft | 355 kts | 277° |
| 2026-05-06 16:19 | 49.83042 | 8.13192 | 13885 ft | 358 kts | 277° |
| 2026-05-06 16:19 | 49.83414 | 8.09368 | 14401 ft | 363 kts | 277° |
| 2026-05-06 16:19 | 49.83791 | 8.05478 | 15009 ft | 365 kts | 277° |
| 2026-05-06 16:20 | 49.84167 | 8.01573 | 15517 ft | 370 kts | 277° |
| 2026-05-06 16:20 | 49.84549 | 7.97596 | 16022 ft | 374 kts | 277° |
| 2026-05-06 16:20 | 49.84931 | 7.93599 | 16574 ft | 378 kts | 277° |
| 2026-05-06 16:20 | 49.85317 | 7.89547 | 17075 ft | 382 kts | 277° |
| 2026-05-06 16:21 | 49.85705 | 7.85463 | 17623 ft | 385 kts | 276° |
| 2026-05-06 16:21 | 49.86094 | 7.81337 | 18136 ft | 388 kts | 277° |
| 2026-05-06 16:21 | 49.86487 | 7.77183 | 18607 ft | 391 kts | 276° |
| 2026-05-06 16:21 | 49.86892 | 7.73002 | 19053 ft | 394 kts | 278° |
| 2026-05-06 16:22 | 49.87417 | 7.68826 | 19578 ft | 395 kts | 280° |
| 2026-05-06 16:22 | 49.88025 | 7.64665 | 20042 ft | 398 kts | 282° |
| 2026-05-06 16:22 | 49.88682 | 7.60466 | 20489 ft | 401 kts | 282° |
| 2026-05-06 16:22 | 49.89352 | 7.56268 | 20945 ft | 403 kts | 282° |
| 2026-05-06 16:23 | 49.90016 | 7.52096 | 21358 ft | 406 kts | 282° |
| 2026-05-06 16:23 | 49.90696 | 7.47770 | 21820 ft | 408 kts | 282° |
| 2026-05-06 16:23 | 49.91363 | 7.43481 | 22281 ft | 409 kts | 282° |
| 2026-05-06 16:23 | 49.92028 | 7.39162 | 22647 ft | 413 kts | 282° |
| 2026-05-06 16:24 | 49.92670 | 7.34957 | 23109 ft | 415 kts | 282° |
| 2026-05-06 16:24 | 49.93342 | 7.30525 | 23456 ft | 419 kts | 282° |
| 2026-05-06 16:24 | 49.94007 | 7.26123 | 23853 ft | 419 kts | 282° |
| 2026-05-06 16:24 | 49.94671 | 7.21723 | 24281 ft | 419 kts | 282° |
| 2026-05-06 16:25 | 49.95337 | 7.17290 | 24585 ft | 422 kts | 282° |
| 2026-05-06 16:25 | 49.96005 | 7.12835 | 24893 ft | 425 kts | 282° |
| 2026-05-06 16:25 | 49.96676 | 7.08349 | 25208 ft | 428 kts | 281° |
| 2026-05-06 16:25 | 49.97348 | 7.03841 | 25539 ft | 430 kts | 281° |
| 2026-05-06 16:26 | 49.98025 | 6.99291 | 25871 ft | 433 kts | 281° |
| 2026-05-06 16:26 | 49.98693 | 6.94722 | 26197 ft | 435 kts | 279° |
| 2026-05-06 16:26 | 49.99091 | 6.90085 | 26651 ft | 431 kts | 271° |
| 2026-05-06 16:26 | 49.99151 | 6.85435 | 26999 ft | 432 kts | 268° |
| 2026-05-06 16:27 | 49.99097 | 6.80737 | 27176 ft | 437 kts | 266° |
| 2026-05-06 16:27 | 49.99010 | 6.77148 | 27419 ft | 439 kts | 265° |
| 2026-05-06 16:27 | 49.98863 | 6.72406 | 27746 ft | 441 kts | 265° |
| 2026-05-06 16:27 | 49.98700 | 6.67643 | 28063 ft | 443 kts | 264° |
| 2026-05-06 16:28 | 49.98536 | 6.62912 | 28368 ft | 445 kts | 264° |
| 2026-05-06 16:28 | 49.98178 | 6.58162 | 28675 ft | 445 kts | 257° |
| 2026-05-06 16:28 | 49.97388 | 6.53450 | 28973 ft | 444 kts | 248° |
| 2026-05-06 16:28 | 49.96322 | 6.49024 | 29279 ft | 445 kts | 246° |
| 2026-05-06 16:29 | 49.95139 | 6.44570 | 29581 ft | 447 kts | 244° |
| 2026-05-06 16:29 | 49.93898 | 6.40131 | 29874 ft | 449 kts | 244° |
| 2026-05-06 16:29 | 49.92632 | 6.35696 | 30160 ft | 450 kts | 244° |
| 2026-05-06 16:29 | 49.91355 | 6.31253 | 30413 ft | 452 kts | 244° |
| 2026-05-06 16:30 | 49.90065 | 6.26790 | 30667 ft | 454 kts | 244° |
| 2026-05-06 16:30 | 49.89177 | 6.23780 | 30823 ft | 455 kts | 244° |
| 2026-05-06 16:30 | 49.87476 | 6.17848 | 31278 ft | 454 kts | 244° |
| 2026-05-06 16:30 | 49.86079 | 6.13467 | 31630 ft | 452 kts | 238° |
| 2026-05-06 16:31 | 49.84408 | 6.09352 | 31982 ft | 451 kts | 235° |
| 2026-05-06 16:31 | 49.82655 | 6.05333 | 32301 ft | 450 kts | 234° |
| 2026-05-06 16:31 | 49.80859 | 6.01360 | 32616 ft | 450 kts | 233° |
| 2026-05-06 16:31 | 49.79043 | 5.97418 | 32922 ft | 450 kts | 233° |
| 2026-05-06 16:32 | 49.77218 | 5.93492 | 33234 ft | 449 kts | 233° |
| 2026-05-06 16:32 | 49.75439 | 5.89524 | 33534 ft | 450 kts | 237° |
| 2026-05-06 16:32 | 49.73945 | 5.85272 | 33787 ft | 452 kts | 244° |
| 2026-05-06 16:32 | 49.72728 | 5.80776 | 33929 ft | 455 kts | 247° |
| 2026-05-06 16:33 | 49.71602 | 5.76202 | 34156 ft | 455 kts | 248° |
| 2026-05-06 16:33 | 49.70529 | 5.71610 | 34414 ft | 454 kts | 249° |
| 2026-05-06 16:33 | 49.69481 | 5.67027 | 34646 ft | 453 kts | 249° |
| 2026-05-06 16:34 | 49.67380 | 5.57852 | 35117 ft | 453 kts | 249° |
| 2026-05-06 16:34 | 49.66320 | 5.53276 | 35308 ft | 452 kts | 249° |
| 2026-05-06 16:34 | 49.65255 | 5.48714 | 35521 ft | 452 kts | 249° |
| 2026-05-06 16:34 | 49.64186 | 5.44161 | 35726 ft | 452 kts | 249° |
| 2026-05-06 16:35 | 49.63111 | 5.39600 | 35939 ft | 452 kts | 249° |
| 2026-05-06 16:35 | 49.62057 | 5.35031 | 36068 ft | 453 kts | 250° |
| 2026-05-06 16:35 | 49.61045 | 5.30418 | 36251 ft | 454 kts | 250° |
| 2026-05-06 16:35 | 49.60058 | 5.25791 | 36439 ft | 454 kts | 251° |
| 2026-05-06 16:36 | 49.59093 | 5.21174 | 36636 ft | 454 kts | 252° |
| 2026-05-06 16:36 | 49.58206 | 5.16506 | 36840 ft | 453 kts | 253° |
| 2026-05-06 16:36 | 49.57377 | 5.11827 | 37020 ft | 453 kts | 254° |
| 2026-05-06 16:36 | 49.56568 | 5.07133 | 37208 ft | 453 kts | 254° |
| 2026-05-06 16:37 | 49.55764 | 5.02450 | 37378 ft | 453 kts | 254° |
| 2026-05-06 16:37 | 49.54950 | 4.97763 | 37550 ft | 453 kts | 253° |
| 2026-05-06 16:37 | 49.54130 | 4.93095 | 37725 ft | 452 kts | 253° |
| 2026-05-06 16:38 | 49.52458 | 4.83719 | 37868 ft | 456 kts | 253° |
| 2026-05-06 16:38 | 49.51044 | 4.75878 | 37880 ft | 460 kts | 253° |
| 2026-05-06 16:39 | 49.49311 | 4.66325 | 37875 ft | 467 kts | 253° |
| 2026-05-06 16:39 | 49.47550 | 4.56656 | 37883 ft | 473 kts | 253° |
| 2026-05-06 16:40 | 49.45758 | 4.46867 | 37890 ft | 477 kts | 253° |
| 2026-05-06 16:40 | 49.43953 | 4.37052 | 37882 ft | 477 kts | 253° |
| 2026-05-06 16:41 | 49.42140 | 4.27252 | 37884 ft | 477 kts | 253° |
| 2026-05-06 16:41 | 49.40317 | 4.17450 | 37881 ft | 477 kts | 253° |
| 2026-05-06 16:42 | 49.38487 | 4.07662 | 37887 ft | 477 kts | 253° |
| 2026-05-06 16:42 | 49.36655 | 3.97877 | 37883 ft | 477 kts | 254° |
| 2026-05-06 16:43 | 49.35106 | 3.87977 | 37888 ft | 478 kts | 257° |
| 2026-05-06 16:43 | 49.33730 | 3.78009 | 37889 ft | 478 kts | 257° |
| 2026-05-06 16:44 | 49.32342 | 3.68053 | 37893 ft | 478 kts | 257° |
| 2026-05-06 16:44 | 49.30915 | 3.58111 | 37891 ft | 478 kts | 256° |
| 2026-05-06 16:45 | 49.29464 | 3.48177 | 37894 ft | 477 kts | 256° |
| 2026-05-06 16:45 | 49.28003 | 3.38252 | 37890 ft | 477 kts | 256° |
| 2026-05-06 16:46 | 49.26536 | 3.28344 | 37901 ft | 477 kts | 256° |
| 2026-05-06 16:46 | 49.25060 | 3.18430 | 37897 ft | 478 kts | 256° |
| 2026-05-06 16:47 | 49.23575 | 3.08518 | 37899 ft | 478 kts | 256° |
| 2026-05-06 16:47 | 49.22082 | 2.98618 | 37899 ft | 478 kts | 256° |
| 2026-05-06 16:48 | 49.20580 | 2.88713 | 37899 ft | 478 kts | 256° |
| 2026-05-06 16:48 | 49.19066 | 2.78799 | 37912 ft | 478 kts | 256° |
| 2026-05-06 16:49 | 49.17545 | 2.68898 | 37907 ft | 478 kts | 256° |
| 2026-05-06 16:49 | 49.16029 | 2.59086 | 37913 ft | 478 kts | 256° |
| 2026-05-06 16:50 | 49.14493 | 2.49207 | 37910 ft | 477 kts | 256° |
| 2026-05-06 16:50 | 49.13029 | 2.39314 | 37914 ft | 478 kts | 260° |
| 2026-05-06 16:51 | 49.12008 | 2.29289 | 37933 ft | 478 kts | 261° |
| 2026-05-06 16:51 | 49.11070 | 2.19260 | 37942 ft | 477 kts | 261° |
| 2026-05-06 16:52 | 49.10142 | 2.09237 | 37938 ft | 477 kts | 261° |
| 2026-05-06 16:52 | 49.09248 | 1.99209 | 37940 ft | 477 kts | 263° |
| 2026-05-06 16:53 | 49.08493 | 1.89325 | 37940 ft | 477 kts | 263° |
| 2026-05-06 16:53 | 49.07742 | 1.79262 | 37930 ft | 477 kts | 263° |
| 2026-05-06 16:54 | 49.06971 | 1.69212 | 37930 ft | 477 kts | 263° |
| 2026-05-06 16:54 | 49.06195 | 1.59349 | 37927 ft | 459 kts | 263° |
| 2026-05-06 16:55 | 49.05429 | 1.49748 | 37938 ft | 455 kts | 263° |
| 2026-05-06 16:55 | 49.04656 | 1.40176 | 37937 ft | 455 kts | 263° |
| 2026-05-06 16:56 | 49.03878 | 1.30616 | 37940 ft | 455 kts | 263° |
| 2026-05-06 16:56 | 49.03319 | 1.21073 | 37938 ft | 456 kts | 270° |
| 2026-05-06 16:57 | 49.03480 | 1.11331 | 37939 ft | 458 kts | 272° |
| 2026-05-06 16:57 | 49.03777 | 1.01636 | 37939 ft | 458 kts | 272° |
| 2026-05-06 16:58 | 49.04086 | 0.91999 | 37945 ft | 458 kts | 272° |
| 2026-05-06 16:58 | 49.04376 | 0.82315 | 37948 ft | 457 kts | 272° |
| 2026-05-06 16:59 | 49.04649 | 0.72648 | 37946 ft | 457 kts | 272° |
| 2026-05-06 16:59 | 49.04912 | 0.62913 | 37949 ft | 456 kts | 272° |
| 2026-05-06 17:00 | 49.05166 | 0.53234 | 37964 ft | 457 kts | 272° |
| 2026-05-06 17:00 | 49.05413 | 0.43633 | 37950 ft | 455 kts | 272° |
| 2026-05-06 17:01 | 49.05648 | 0.33991 | 37960 ft | 456 kts | 272° |
| 2026-05-06 17:01 | 49.05877 | 0.24347 | 37960 ft | 455 kts | 272° |
| 2026-05-06 17:02 | 49.06099 | 0.14689 | 37969 ft | 456 kts | 272° |
| 2026-05-06 17:02 | 49.06312 | 0.05036 | 37968 ft | 456 kts | 272° |
| 2026-05-06 17:03 | 49.06518 | -0.04622 | 37980 ft | 456 kts | 272° |
| 2026-05-06 17:03 | 49.06716 | -0.14294 | 37985 ft | 456 kts | 272° |
| 2026-05-06 17:04 | 49.06906 | -0.23977 | 37989 ft | 457 kts | 272° |
| 2026-05-06 17:04 | 49.07088 | -0.33643 | 37991 ft | 457 kts | 271° |
| 2026-05-06 17:05 | 49.07264 | -0.43332 | 37993 ft | 457 kts | 271° |
| 2026-05-06 17:05 | 49.07431 | -0.53014 | 37992 ft | 457 kts | 271° |
| 2026-05-06 17:06 | 49.07590 | -0.62691 | 37992 ft | 457 kts | 271° |
| 2026-05-06 17:06 | 49.07741 | -0.72366 | 37989 ft | 457 kts | 271° |
| 2026-05-06 17:07 | 49.07884 | -0.82046 | 37987 ft | 457 kts | 271° |
| 2026-05-06 17:07 | 49.08019 | -0.91736 | 37985 ft | 456 kts | 271° |
| 2026-05-06 17:08 | 49.08145 | -1.01418 | 37981 ft | 456 kts | 271° |
| 2026-05-06 17:08 | 49.08264 | -1.11073 | 37984 ft | 456 kts | 271° |
| 2026-05-06 17:09 | 49.08892 | -1.20683 | 37986 ft | 455 kts | 281° |
| 2026-05-06 17:09 | 49.10283 | -1.30100 | 37982 ft | 456 kts | 283° |
| 2026-05-06 17:10 | 49.11812 | -1.39491 | 37982 ft | 455 kts | 284° |
| 2026-05-06 17:10 | 49.13344 | -1.48867 | 37982 ft | 455 kts | 283° |
| 2026-05-06 17:11 | 49.14840 | -1.58172 | 37985 ft | 455 kts | 283° |
| 2026-05-06 17:11 | 49.16331 | -1.67566 | 37981 ft | 455 kts | 283° |
| 2026-05-06 17:12 | 49.17811 | -1.76959 | 37980 ft | 455 kts | 283° |
| 2026-05-06 17:12 | 49.19281 | -1.86340 | 37982 ft | 454 kts | 283° |
| 2026-05-06 17:13 | 49.20746 | -1.95735 | 37990 ft | 454 kts | 283° |
| 2026-05-06 17:13 | 49.22207 | -2.05115 | 37980 ft | 454 kts | 283° |
| 2026-05-06 17:14 | 49.23780 | -2.14470 | 37979 ft | 454 kts | 284° |
| 2026-05-06 17:14 | 49.25398 | -2.23791 | 37984 ft | 454 kts | 284° |
| 2026-05-06 17:15 | 49.27006 | -2.33128 | 37988 ft | 453 kts | 284° |
| 2026-05-06 17:15 | 49.28593 | -2.42461 | 37990 ft | 453 kts | 284° |
| 2026-05-06 17:16 | 49.30166 | -2.51797 | 37992 ft | 453 kts | 284° |
| 2026-05-06 17:16 | 49.31732 | -2.61141 | 37992 ft | 453 kts | 284° |
| 2026-05-06 17:17 | 49.33290 | -2.70481 | 37993 ft | 452 kts | 284° |
| 2026-05-06 17:17 | 49.34841 | -2.79831 | 37990 ft | 452 kts | 284° |
| 2026-05-06 17:18 | 49.36382 | -2.89173 | 37982 ft | 452 kts | 284° |
| 2026-05-06 17:18 | 49.37916 | -2.98526 | 37982 ft | 452 kts | 284° |
| 2026-05-06 17:19 | 49.39443 | -3.07882 | 37981 ft | 452 kts | 283° |
| 2026-05-06 17:19 | 49.40960 | -3.17237 | 37982 ft | 452 kts | 283° |
| 2026-05-06 17:20 | 49.42472 | -3.26603 | 37983 ft | 451 kts | 283° |
| 2026-05-06 17:20 | 49.43973 | -3.35959 | 37983 ft | 452 kts | 283° |
| 2026-05-06 17:21 | 49.45459 | -3.45275 | 37983 ft | 452 kts | 283° |
| 2026-05-06 17:21 | 49.46946 | -3.54650 | 37983 ft | 452 kts | 283° |
| 2026-05-06 17:22 | 49.48424 | -3.64026 | 37982 ft | 451 kts | 283° |
| 2026-05-06 17:22 | 49.49657 | -3.71885 | 37982 ft | 451 kts | 283° |
| 2026-05-06 17:23 | 49.51122 | -3.81271 | 37983 ft | 451 kts | 283° |
| 2026-05-06 17:23 | 49.52577 | -3.90644 | 37982 ft | 451 kts | 283° |
| 2026-05-06 17:24 | 49.54032 | -4.00080 | 37992 ft | 456 kts | 283° |
| 2026-05-06 17:24 | 49.55502 | -4.09668 | 37990 ft | 463 kts | 283° |
| 2026-05-06 17:25 | 49.56984 | -4.19389 | 37993 ft | 470 kts | 283° |
| 2026-05-06 17:25 | 49.58474 | -4.29219 | 37991 ft | 472 kts | 283° |
| 2026-05-06 17:26 | 49.59875 | -4.39097 | 37993 ft | 471 kts | 281° |
| 2026-05-06 17:26 | 49.61126 | -4.49001 | 37991 ft | 471 kts | 281° |
| 2026-05-06 17:27 | 49.62354 | -4.58921 | 37992 ft | 471 kts | 281° |
| 2026-05-06 17:27 | 49.63580 | -4.68774 | 37991 ft | 471 kts | 281° |
| 2026-05-06 17:28 | 49.64815 | -4.78695 | 38002 ft | 471 kts | 281° |
| 2026-05-06 17:28 | 49.66043 | -4.88608 | 37994 ft | 471 kts | 281° |
| 2026-05-06 17:29 | 49.67265 | -4.98549 | 37993 ft | 471 kts | 281° |
| 2026-05-06 17:29 | 49.68476 | -5.08476 | 37993 ft | 471 kts | 280° |
| 2026-05-06 17:30 | 49.69680 | -5.18421 | 37990 ft | 471 kts | 280° |
| 2026-05-06 17:30 | 49.70874 | -5.28368 | 37991 ft | 471 kts | 280° |
| 2026-05-06 17:31 | 49.72060 | -5.38319 | 37993 ft | 471 kts | 280° |
| 2026-05-06 17:31 | 49.73237 | -5.48265 | 37991 ft | 471 kts | 280° |
| 2026-05-06 17:32 | 49.74407 | -5.58234 | 37991 ft | 471 kts | 280° |
| 2026-05-06 17:32 | 49.75564 | -5.68175 | 37996 ft | 471 kts | 280° |
| 2026-05-06 17:33 | 49.76717 | -5.78155 | 37995 ft | 471 kts | 280° |
| 2026-05-06 17:33 | 49.77861 | -5.88129 | 38006 ft | 471 kts | 280° |
| 2026-05-06 17:34 | 49.78997 | -5.98119 | 38013 ft | 472 kts | 280° |
| 2026-05-06 17:34 | 49.80125 | -6.08121 | 38016 ft | 472 kts | 280° |
| 2026-05-06 17:35 | 49.81244 | -6.18126 | 38020 ft | 472 kts | 280° |
| 2026-05-06 17:35 | 49.82357 | -6.28154 | 38021 ft | 472 kts | 279° |
| 2026-05-06 17:36 | 49.84010 | -6.43202 | 38019 ft | 473 kts | 279° |
| 2026-05-06 17:36 | 49.85103 | -6.53255 | 38018 ft | 473 kts | 279° |
| 2026-05-06 17:37 | 49.86186 | -6.63302 | 38009 ft | 473 kts | 279° |
| 2026-05-06 17:37 | 49.87260 | -6.73360 | 38010 ft | 473 kts | 279° |
| 2026-05-06 17:38 | 49.88327 | -6.83426 | 38004 ft | 473 kts | 279° |
| 2026-05-06 17:38 | 49.89384 | -6.93491 | 38009 ft | 473 kts | 279° |
| 2026-05-06 17:39 | 49.90428 | -7.03511 | 38009 ft | 474 kts | 279° |
| 2026-05-06 17:39 | 49.91469 | -7.13599 | 38010 ft | 474 kts | 279° |
| 2026-05-06 17:40 | 49.92501 | -7.23685 | 38010 ft | 474 kts | 279° |
| 2026-05-06 17:40 | 49.93525 | -7.33785 | 38009 ft | 474 kts | 279° |
| 2026-05-06 17:41 | 49.94542 | -7.43905 | 38006 ft | 474 kts | 279° |
| 2026-05-06 17:41 | 49.95550 | -7.54027 | 38008 ft | 475 kts | 279° |
| 2026-05-06 17:42 | 49.96551 | -7.64172 | 38007 ft | 475 kts | 279° |
| 2026-05-06 17:42 | 49.97542 | -7.74315 | 38010 ft | 475 kts | 279° |
| 2026-05-06 17:43 | 49.98524 | -7.84459 | 38008 ft | 475 kts | 279° |
| 2026-05-06 17:43 | 49.99500 | -7.94629 | 38007 ft | 476 kts | 279° |
| 2026-05-06 17:44 | 50.00853 | -8.04664 | 38010 ft | 475 kts | 284° |
| 2026-05-06 17:44 | 50.02544 | -8.14601 | 38010 ft | 475 kts | 285° |
| 2026-05-06 17:45 | 50.04289 | -8.24519 | 38006 ft | 475 kts | 285° |
| 2026-05-06 17:45 | 50.06023 | -8.34431 | 38009 ft | 475 kts | 285° |
| 2026-05-06 17:46 | 50.07741 | -8.44360 | 38011 ft | 475 kts | 285° |
| 2026-05-06 17:46 | 50.09448 | -8.54311 | 38013 ft | 476 kts | 285° |
| 2026-05-06 17:47 | 50.11145 | -8.64265 | 38013 ft | 475 kts | 285° |
| 2026-05-06 17:47 | 50.12832 | -8.74217 | 38011 ft | 475 kts | 285° |
| 2026-05-06 17:48 | 50.14513 | -8.84189 | 38016 ft | 476 kts | 285° |
| 2026-05-06 17:48 | 50.16188 | -8.94179 | 38016 ft | 476 kts | 285° |
| 2026-05-06 17:49 | 50.17853 | -9.04167 | 38014 ft | 475 kts | 285° |
| 2026-05-06 17:49 | 50.19497 | -9.14092 | 38015 ft | 476 kts | 285° |
| 2026-05-06 17:50 | 50.21147 | -9.24110 | 38012 ft | 476 kts | 285° |
| 2026-05-06 17:50 | 50.22789 | -9.34140 | 38015 ft | 476 kts | 285° |
| 2026-05-06 17:51 | 50.24422 | -9.44169 | 38016 ft | 477 kts | 285° |
| 2026-05-06 17:51 | 50.26047 | -9.54217 | 38018 ft | 477 kts | 285° |
| 2026-05-06 17:52 | 50.27665 | -9.64278 | 38014 ft | 477 kts | 284° |
| 2026-05-06 17:52 | 50.29275 | -9.74346 | 38016 ft | 477 kts | 284° |
| 2026-05-06 17:53 | 50.30875 | -9.84416 | 38021 ft | 478 kts | 284° |
| 2026-05-06 17:53 | 50.32469 | -9.94512 | 38020 ft | 477 kts | 284° |
| 2026-05-06 17:54 | 50.34049 | -10.04582 | 38020 ft | 477 kts | 284° |
| 2026-05-06 17:54 | 50.35624 | -10.14680 | 38018 ft | 477 kts | 284° |
| 2026-05-06 17:55 | 50.37192 | -10.24793 | 38016 ft | 478 kts | 284° |
| 2026-05-06 17:55 | 50.38749 | -10.34908 | 38017 ft | 478 kts | 284° |
| 2026-05-06 17:56 | 50.40299 | -10.45035 | 38020 ft | 478 kts | 284° |
| 2026-05-06 17:56 | 50.41845 | -10.55196 | 38021 ft | 479 kts | 284° |
| 2026-05-06 17:57 | 50.43381 | -10.65365 | 38020 ft | 479 kts | 284° |
| 2026-05-06 17:57 | 50.44911 | -10.75548 | 38019 ft | 480 kts | 284° |
| 2026-05-06 17:58 | 50.46435 | -10.85768 | 38024 ft | 482 kts | 284° |
| 2026-05-06 17:58 | 50.47955 | -10.96019 | 38025 ft | 482 kts | 284° |
| 2026-05-06 17:59 | 50.49462 | -11.06258 | 38022 ft | 482 kts | 284° |
| 2026-05-06 17:59 | 50.50963 | -11.16523 | 38022 ft | 482 kts | 284° |
| 2026-05-06 18:00 | 50.52454 | -11.26784 | 38031 ft | 482 kts | 284° |
| 2026-05-06 18:00 | 50.53938 | -11.37063 | 38030 ft | 482 kts | 284° |
| 2026-05-06 18:01 | 50.55413 | -11.47356 | 38024 ft | 482 kts | 284° |
| 2026-05-06 18:01 | 50.56879 | -11.57651 | 38029 ft | 482 kts | 284° |
| 2026-05-06 18:02 | 50.58335 | -11.67948 | 38021 ft | 482 kts | 284° |
| 2026-05-06 18:02 | 50.59774 | -11.78193 | 38022 ft | 482 kts | 284° |
| 2026-05-06 18:03 | 50.61212 | -11.88508 | 38026 ft | 482 kts | 283° |
| 2026-05-06 18:03 | 50.62643 | -11.98833 | 38026 ft | 482 kts | 283° |
| 2026-05-06 18:04 | 50.64063 | -12.09161 | 38027 ft | 482 kts | 283° |
| 2026-05-06 18:04 | 50.65474 | -12.19495 | 38026 ft | 483 kts | 283° |
| 2026-05-06 18:05 | 50.66877 | -12.29837 | 38028 ft | 482 kts | 283° |
| 2026-05-06 18:05 | 50.68270 | -12.40182 | 38020 ft | 483 kts | 283° |
| 2026-05-06 18:06 | 50.69655 | -12.50542 | 38030 ft | 483 kts | 283° |
| 2026-05-06 18:06 | 50.71030 | -12.60903 | 38027 ft | 483 kts | 283° |
| 2026-05-06 18:07 | 50.72165 | -12.69519 | 38032 ft | 483 kts | 283° |
| 2026-05-06 18:07 | 50.73524 | -12.79896 | 38029 ft | 483 kts | 283° |
| 2026-05-06 18:08 | 50.74874 | -12.90282 | 38024 ft | 483 kts | 283° |
| 2026-05-06 18:08 | 50.76216 | -13.00681 | 38026 ft | 483 kts | 283° |
| 2026-05-06 18:09 | 50.77548 | -13.11082 | 38026 ft | 483 kts | 283° |
| 2026-05-06 18:09 | 50.78869 | -13.21481 | 38020 ft | 483 kts | 283° |
| 2026-05-06 18:10 | 50.80184 | -13.31898 | 38031 ft | 483 kts | 283° |
| 2026-05-06 18:10 | 50.81486 | -13.42303 | 38027 ft | 483 kts | 282° |
| 2026-05-06 18:11 | 50.82780 | -13.52719 | 38024 ft | 483 kts | 282° |
| 2026-05-06 18:11 | 50.84065 | -13.63142 | 38024 ft | 483 kts | 282° |
| 2026-05-06 18:12 | 50.85340 | -13.73567 | 38039 ft | 483 kts | 282° |
| 2026-05-06 18:12 | 50.86606 | -13.84002 | 38030 ft | 482 kts | 282° |
| 2026-05-06 18:13 | 50.87862 | -13.94440 | 38036 ft | 482 kts | 282° |
| 2026-05-06 18:13 | 50.89108 | -14.04872 | 38024 ft | 482 kts | 282° |
| 2026-05-06 18:14 | 50.90346 | -14.15315 | 38025 ft | 483 kts | 282° |
| 2026-05-06 18:14 | 50.91575 | -14.25777 | 38027 ft | 483 kts | 282° |
| 2026-05-06 18:15 | 50.92793 | -14.36228 | 38017 ft | 482 kts | 282° |
| 2026-05-06 18:15 | 50.93997 | -14.46645 | 38027 ft | 480 kts | 282° |
| 2026-05-06 18:16 | 50.95191 | -14.57058 | 38012 ft | 480 kts | 282° |
| 2026-05-06 18:16 | 50.96377 | -14.67483 | 38013 ft | 480 kts | 282° |
| 2026-05-06 18:17 | 50.97545 | -14.77841 | 38025 ft | 480 kts | 281° |
| 2026-05-06 18:17 | 50.98710 | -14.88259 | 38025 ft | 480 kts | 281° |
| 2026-05-06 18:18 | 50.99869 | -14.98704 | 38006 ft | 480 kts | 281° |
| 2026-05-06 18:18 | 51.01093 | -15.09112 | 38008 ft | 480 kts | 282° |
| 2026-05-06 18:19 | 51.02368 | -15.19517 | 38028 ft | 480 kts | 282° |
| 2026-05-06 18:19 | 51.03634 | -15.29922 | 37999 ft | 480 kts | 282° |
| 2026-05-06 18:20 | 51.04882 | -15.40332 | 38023 ft | 478 kts | 282° |
| 2026-05-06 18:20 | 51.06111 | -15.50712 | 38001 ft | 478 kts | 282° |
| 2026-05-06 18:21 | 51.07330 | -15.61099 | 38019 ft | 478 kts | 282° |
| 2026-05-06 18:21 | 51.08540 | -15.71487 | 38018 ft | 478 kts | 281° |
| 2026-05-06 18:22 | 51.09740 | -15.81876 | 38023 ft | 478 kts | 282° |
| 2026-05-06 18:22 | 51.10931 | -15.92263 | 38012 ft | 476 kts | 281° |
| 2026-05-06 18:23 | 51.12110 | -16.02639 | 38012 ft | 477 kts | 281° |
| 2026-05-06 18:23 | 51.13281 | -16.13027 | 38012 ft | 477 kts | 281° |
| 2026-05-06 18:24 | 51.14441 | -16.23404 | 38012 ft | 476 kts | 281° |
| 2026-05-06 18:24 | 51.15593 | -16.33789 | 38009 ft | 476 kts | 281° |
| 2026-05-06 18:25 | 51.16732 | -16.44156 | 38005 ft | 474 kts | 280° |
| 2026-05-06 18:25 | 51.17860 | -16.54502 | 38005 ft | 474 kts | 280° |
| 2026-05-06 18:26 | 51.18977 | -16.64850 | 38007 ft | 474 kts | 280° |
| 2026-05-06 18:26 | 51.20078 | -16.75133 | 38006 ft | 473 kts | 280° |
| 2026-05-06 18:27 | 51.21176 | -16.85472 | 38005 ft | 474 kts | 280° |
| 2026-05-06 18:27 | 51.22266 | -16.95822 | 38006 ft | 472 kts | 279° |
| 2026-05-06 18:28 | 51.23340 | -17.06121 | 38004 ft | 470 kts | 279° |
| 2026-05-06 18:28 | 51.24406 | -17.16429 | 38006 ft | 472 kts | 279° |
| 2026-05-06 18:29 | 51.25466 | -17.26770 | 38015 ft | 472 kts | 278° |
| 2026-05-06 18:29 | 51.26516 | -17.37118 | 38012 ft | 472 kts | 279° |
| 2026-05-06 18:30 | 51.27556 | -17.47449 | 38004 ft | 472 kts | 278° |
| 2026-05-06 18:30 | 51.28586 | -17.57784 | 38006 ft | 471 kts | 278° |
| 2026-05-06 18:31 | 51.29606 | -17.68115 | 38008 ft | 470 kts | 278° |
| 2026-05-06 18:31 | 51.30616 | -17.78448 | 38009 ft | 471 kts | 278° |
| 2026-05-06 18:32 | 51.31619 | -17.88792 | 38007 ft | 471 kts | 278° |
| 2026-05-06 18:32 | 51.32610 | -17.99121 | 38006 ft | 470 kts | 278° |
| 2026-05-06 18:33 | 51.33594 | -18.09462 | 38006 ft | 470 kts | 277° |
| 2026-05-06 18:33 | 51.34566 | -18.19793 | 37999 ft | 470 kts | 277° |
| 2026-05-06 18:34 | 51.35524 | -18.30072 | 38018 ft | 471 kts | 277° |
| 2026-05-06 18:34 | 51.36480 | -18.40425 | 38002 ft | 471 kts | 277° |
| 2026-05-06 18:35 | 51.37428 | -18.50798 | 38007 ft | 471 kts | 277° |
| 2026-05-06 18:35 | 51.38366 | -18.61161 | 37999 ft | 471 kts | 277° |
| 2026-05-06 18:36 | 51.39295 | -18.71540 | 38008 ft | 471 kts | 277° |
| 2026-05-06 18:36 | 51.40215 | -18.81922 | 38004 ft | 471 kts | 277° |
| 2026-05-06 18:37 | 51.40973 | -18.90552 | 38003 ft | 471 kts | 276° |
| 2026-05-06 18:37 | 51.42027 | -19.02695 | 38011 ft | 471 kts | 276° |
| 2026-05-06 18:38 | 51.42918 | -19.13063 | 38003 ft | 470 kts | 276° |
| 2026-05-06 18:38 | 51.43799 | -19.23432 | 38009 ft | 470 kts | 276° |
| 2026-05-06 18:39 | 51.44672 | -19.33813 | 38004 ft | 470 kts | 276° |
| 2026-05-06 18:40 | 51.45962 | -19.49384 | 38005 ft | 470 kts | 276° |
| 2026-05-06 18:40 | 51.46811 | -19.59766 | 38009 ft | 470 kts | 276° |
| 2026-05-06 18:41 | 51.47645 | -19.70080 | 38015 ft | 469 kts | 276° |
| 2026-05-06 18:41 | 51.48475 | -19.80458 | 38003 ft | 469 kts | 276° |
| 2026-05-06 18:42 | 51.49295 | -19.90828 | 38006 ft | 469 kts | 276° |
| 2026-05-06 18:42 | 51.50081 | -20.01204 | 38004 ft | 469 kts | 274° |
| 2026-05-06 18:43 | 51.50586 | -20.11623 | 38009 ft | 468 kts | 272° |
| 2026-05-06 18:43 | 51.50970 | -20.22068 | 38008 ft | 468 kts | 272° |
| 2026-05-06 18:44 | 51.51357 | -20.32510 | 38005 ft | 469 kts | 272° |
| 2026-05-06 18:44 | 51.51759 | -20.42953 | 38006 ft | 469 kts | 272° |
| 2026-05-06 18:45 | 51.52162 | -20.53400 | 38003 ft | 469 kts | 272° |
| 2026-05-06 18:45 | 51.52556 | -20.63845 | 38014 ft | 469 kts | 272° |
| 2026-05-06 18:46 | 51.52940 | -20.74287 | 38006 ft | 468 kts | 272° |
| 2026-05-06 18:46 | 51.53314 | -20.84727 | 38005 ft | 469 kts | 272° |
| 2026-05-06 18:47 | 51.53679 | -20.95181 | 38007 ft | 469 kts | 272° |
| 2026-05-06 18:47 | 51.54035 | -21.05630 | 38005 ft | 468 kts | 272° |
| 2026-05-06 18:48 | 51.54381 | -21.16071 | 38013 ft | 468 kts | 272° |
| 2026-05-06 18:48 | 51.54717 | -21.26530 | 38007 ft | 468 kts | 272° |
| 2026-05-06 18:49 | 51.55045 | -21.36973 | 38004 ft | 468 kts | 272° |
| 2026-05-06 18:49 | 51.55363 | -21.47429 | 38003 ft | 468 kts | 271° |
| 2026-05-06 18:50 | 51.55672 | -21.57879 | 38006 ft | 468 kts | 271° |
| 2026-05-06 18:50 | 51.55972 | -21.68333 | 38004 ft | 468 kts | 271° |
| 2026-05-06 18:51 | 51.56262 | -21.78779 | 38001 ft | 468 kts | 271° |
| 2026-05-06 18:51 | 51.56543 | -21.89221 | 38002 ft | 467 kts | 271° |
| 2026-05-06 18:52 | 51.56814 | -21.99653 | 38001 ft | 467 kts | 271° |
| 2026-05-06 18:52 | 51.57076 | -22.10098 | 38002 ft | 467 kts | 271° |
| 2026-05-06 18:53 | 51.57286 | -22.18774 | 38000 ft | 467 kts | 271° |
| 2026-05-06 18:53 | 51.57531 | -22.29214 | 37999 ft | 468 kts | 271° |
| 2026-05-06 18:54 | 51.57768 | -22.39682 | 38004 ft | 468 kts | 271° |
| 2026-05-06 18:54 | 51.57995 | -22.50158 | 37996 ft | 469 kts | 271° |
| 2026-05-06 18:55 | 51.58213 | -22.60644 | 37991 ft | 469 kts | 271° |
| 2026-05-06 18:55 | 51.58422 | -22.71131 | 37993 ft | 469 kts | 271° |
| 2026-05-06 18:56 | 51.58621 | -22.81621 | 37989 ft | 470 kts | 271° |
| 2026-05-06 18:56 | 51.58812 | -22.92136 | 37993 ft | 471 kts | 271° |
| 2026-05-06 18:57 | 51.58993 | -23.02659 | 37987 ft | 471 kts | 271° |
| 2026-05-06 18:57 | 51.59165 | -23.13178 | 37990 ft | 471 kts | 271° |
| 2026-05-06 18:58 | 51.59327 | -23.23700 | 37991 ft | 471 kts | 271° |
| 2026-05-06 18:58 | 51.59480 | -23.34231 | 37984 ft | 471 kts | 271° |
| 2026-05-06 18:59 | 51.59624 | -23.44755 | 37976 ft | 471 kts | 271° |
| 2026-05-06 18:59 | 51.59758 | -23.55268 | 37993 ft | 471 kts | 271° |
| 2026-05-06 19:00 | 51.59883 | -23.65816 | 37978 ft | 472 kts | 270° |
| 2026-05-06 19:00 | 51.59998 | -23.76378 | 37984 ft | 472 kts | 270° |
| 2026-05-06 19:01 | 51.60104 | -23.86933 | 37977 ft | 472 kts | 270° |
| 2026-05-06 19:01 | 51.60201 | -23.97479 | 37974 ft | 472 kts | 270° |
| 2026-05-06 19:02 | 51.60288 | -24.08052 | 37974 ft | 472 kts | 270° |
| 2026-05-06 19:02 | 51.60366 | -24.18606 | 37975 ft | 472 kts | 270° |
| 2026-05-06 19:03 | 51.60434 | -24.29162 | 37959 ft | 472 kts | 270° |
| 2026-05-06 19:03 | 51.60493 | -24.39737 | 37958 ft | 472 kts | 270° |
| 2026-05-06 19:04 | 51.60543 | -24.50303 | 37962 ft | 473 kts | 270° |
| 2026-05-06 19:04 | 51.60582 | -24.60819 | 37963 ft | 473 kts | 270° |
| 2026-05-06 19:05 | 51.60613 | -24.71456 | 37948 ft | 473 kts | 270° |
| 2026-05-06 19:05 | 51.60634 | -24.81990 | 37955 ft | 474 kts | 270° |
| 2026-05-06 19:06 | 51.60645 | -24.92607 | 37963 ft | 475 kts | 270° |
| 2026-05-06 19:06 | 51.60647 | -25.03305 | 37951 ft | 475 kts | 270° |
| 2026-05-06 19:07 | 51.60639 | -25.13875 | 37951 ft | 475 kts | 270° |
| 2026-05-06 19:07 | 51.60622 | -25.24514 | 37961 ft | 475 kts | 269° |
| 2026-05-06 19:08 | 51.60595 | -25.35216 | 37944 ft | 475 kts | 269° |
| 2026-05-06 19:08 | 51.60558 | -25.45784 | 37951 ft | 476 kts | 269° |
| 2026-05-06 19:09 | 51.60512 | -25.56421 | 37942 ft | 476 kts | 269° |
| 2026-05-06 19:09 | 51.60456 | -25.67059 | 37942 ft | 476 kts | 269° |
| 2026-05-06 19:10 | 51.60391 | -25.77695 | 37936 ft | 475 kts | 269° |
| 2026-05-06 19:10 | 51.60316 | -25.88326 | 37935 ft | 476 kts | 269° |
| 2026-05-06 19:11 | 51.60231 | -25.98976 | 37939 ft | 476 kts | 269° |
| 2026-05-06 19:11 | 51.60136 | -26.09641 | 37934 ft | 476 kts | 269° |
| 2026-05-06 19:12 | 51.60033 | -26.20280 | 37931 ft | 476 kts | 269° |
| 2026-05-06 19:12 | 51.59919 | -26.30935 | 37931 ft | 476 kts | 269° |
| 2026-05-06 19:13 | 51.59795 | -26.41588 | 37926 ft | 476 kts | 269° |